createdAt,value
2023-02-07T00:01:43.279Z,60613.06
2023-02-07T00:04:13.372Z,60599.22
2023-02-07T00:06:41.926Z,60588.72
2023-02-07T00:09:12.071Z,60592.97
2023-02-07T00:11:41.589Z,60586.59
2023-02-07T00:14:12.830Z,60588.59
2023-02-07T00:16:41.984Z,60591.25
2023-02-07T00:19:10.527Z,60585.25
2023-02-07T00:21:40.461Z,60571.28
2023-02-07T00:24:09.358Z,60583.13
2023-02-07T00:26:37.898Z,60588.72
2023-02-07T00:29:07.141Z,60591.50
2023-02-07T00:31:36.731Z,60591.66
2023-02-07T00:34:08.365Z,60588.31
2023-02-07T00:36:40.469Z,60592.31
2023-02-07T00:39:13.521Z,60604.53
2023-02-07T00:41:42.277Z,60606.53
2023-02-07T00:44:11.685Z,60604.13
2023-02-07T00:46:40.492Z,60604.97
2023-02-07T00:49:09.139Z,60599.75
2023-02-07T00:51:39.092Z,60611.34
2023-02-07T00:54:07.901Z,60614.25
2023-02-07T00:56:37.166Z,60616.38
2023-02-07T00:59:05.694Z,60614.25
2023-02-07T01:01:34.297Z,60615.72
2023-02-07T01:04:03.058Z,60622.09
2023-02-07T01:06:33.899Z,60617.47
2023-02-07T01:09:07.097Z,60617.84
2023-02-07T01:11:35.624Z,60600.00
2023-02-07T01:14:04.655Z,60600.41
2023-02-07T01:16:36.320Z,60598.28
2023-02-07T01:19:07.471Z,60581.25
2023-02-07T01:21:36.253Z,60597.63
2023-02-07T01:24:09.262Z,60591.38
2023-02-07T01:26:38.743Z,60588.59
2023-02-07T01:29:07.463Z,60601.63
2023-02-07T01:31:37.085Z,60594.56
2023-02-07T01:34:05.945Z,60596.69
2023-02-07T01:36:34.606Z,60601.47
2023-02-07T01:39:03.941Z,60593.38
2023-02-07T01:41:37.490Z,60598.28
2023-02-07T01:44:09.549Z,60601.47
2023-02-07T01:46:38.160Z,60589.25
2023-02-07T01:49:10.109Z,60601.22
2023-02-07T01:51:43.963Z,60602.28
2023-02-07T01:54:14.295Z,60595.50
2023-02-07T01:56:58.008Z,60591.66
2023-02-07T01:59:27.855Z,60589.66
2023-02-07T02:01:57.858Z,60583.13
2023-02-07T02:04:27.087Z,60577.41
2023-02-07T02:06:56.121Z,60583.78
2023-02-07T02:09:25.453Z,60575.81
2023-02-07T02:12:30.502Z,60568.09
2023-02-07T02:15:14.340Z,60572.75
2023-02-07T02:18:01.327Z,60565.69
2023-02-07T02:21:33.954Z,60566.75
2023-02-07T02:25:03.445Z,60571.03
2023-02-07T02:27:59.846Z,60565.84
2023-02-07T02:30:58.213Z,60564.22
2023-02-07T02:33:46.896Z,60558.38
2023-02-07T02:36:28.697Z,60563.19
2023-02-07T02:39:08.925Z,60554.66
2023-02-07T02:41:43.858Z,60556.00
2023-02-07T02:44:18.498Z,60549.34
2023-02-07T02:46:49.195Z,60547.22
2023-02-07T02:49:20.955Z,60547.22
2023-02-07T02:51:52.855Z,60553.34
2023-02-07T02:54:33.157Z,60541.38
2023-02-07T02:57:34.754Z,60537.53
2023-02-07T03:00:25.852Z,60534.44
2023-02-07T03:03:21.314Z,60527.94
2023-02-07T03:06:08.223Z,60530.06
2023-02-07T03:08:45.673Z,60529.16
2023-02-07T03:11:17.532Z,60523.41
2023-02-07T03:14:01.157Z,60531.00
2023-02-07T03:16:36.380Z,60523.56
2023-02-07T03:19:11.312Z,60517.03
2023-02-07T03:21:47.313Z,60510.00
2023-02-07T03:24:20.040Z,60508.94
2023-02-07T03:26:51.875Z,60505.75
2023-02-07T03:29:22.630Z,60498.84
2023-02-07T03:31:58.004Z,60505.75
2023-02-07T03:34:34.639Z,60499.91
2023-02-07T03:37:11.410Z,60492.97
2023-02-07T03:39:40.452Z,60486.59
2023-02-07T03:42:15.892Z,60477.56
2023-02-07T03:44:46.314Z,60476.38
2023-02-07T03:47:18.162Z,60475.88
2023-02-07T03:49:46.723Z,60472.13
2023-02-07T03:52:16.564Z,60477.84
2023-02-07T03:54:46.243Z,60476.78
2023-02-07T03:57:14.760Z,60474.66
2023-02-07T03:59:43.356Z,60470.41
2023-02-07T04:02:11.814Z,60464.31
2023-02-07T04:04:40.416Z,60460.97
2023-02-07T04:07:08.961Z,60461.09
2023-02-07T04:09:38.710Z,60460.84
2023-02-07T04:12:07.496Z,60464.31
2023-02-07T04:14:35.935Z,60457.25
2023-02-07T04:17:04.750Z,60451.00
2023-02-07T04:19:33.172Z,60453.13
2023-02-07T04:22:01.738Z,60454.47
2023-02-07T04:24:32.101Z,60450.09
2023-02-07T04:27:01.932Z,60445.56
2023-02-07T04:29:30.406Z,60449.16
2023-02-07T04:31:59.154Z,60450.47
2023-02-07T04:34:28.014Z,60454.47
2023-02-07T04:36:56.643Z,60457.25
2023-02-07T04:39:25.117Z,60449.28
2023-02-07T04:41:53.954Z,60457.25
2023-02-07T04:44:24.158Z,60440.94
2023-02-07T04:46:52.568Z,60445.97
2023-02-07T04:49:21.426Z,60434.66
2023-02-07T04:51:49.941Z,60431.75
2023-02-07T04:54:18.376Z,60438.25
2023-02-07T04:56:46.720Z,60434.00
2023-02-07T04:59:15.194Z,60433.75
2023-02-07T05:01:45.013Z,60432.81
2023-02-07T05:04:13.437Z,60424.56
2023-02-07T05:06:41.959Z,60424.84
2023-02-07T05:09:10.428Z,60419.66
2023-02-07T05:11:38.883Z,60424.72
2023-02-07T05:14:07.309Z,60419.66
2023-02-07T05:16:35.975Z,60409.06
2023-02-07T05:19:06.118Z,60421.13
2023-02-07T05:21:34.496Z,60426.44
2023-02-07T05:24:03.028Z,60427.50
2023-02-07T05:26:31.429Z,60423.41
2023-02-07T05:28:59.932Z,60427.09
2023-02-07T05:31:42.366Z,60417.69
2023-02-07T05:34:12.206Z,60424.19
2023-02-07T05:36:40.881Z,60422.19
2023-02-07T05:39:09.292Z,60416.34
2023-02-07T05:41:37.824Z,60407.44
2023-02-07T05:44:07.118Z,60408.91
2023-02-07T05:46:35.550Z,60403.72
2023-02-07T05:49:04.524Z,60392.97
2023-02-07T05:51:34.592Z,60387.28
2023-02-07T05:54:03.147Z,60389.25
2023-02-07T05:56:31.560Z,60386.75
2023-02-07T05:59:00.140Z,60392.59
2023-02-07T06:01:28.817Z,60400.94
2023-02-07T06:03:57.290Z,60396.56
2023-02-07T06:06:25.783Z,60395.25
2023-02-07T06:08:55.592Z,60387.41
2023-02-07T06:11:24.089Z,60388.34
2023-02-07T06:13:52.630Z,60380.38
2023-02-07T06:16:21.038Z,60379.84
2023-02-07T06:18:49.515Z,60381.44
2023-02-07T06:21:18.056Z,60377.72
2023-02-07T06:23:49.257Z,60374.78
2023-02-07T06:26:19.488Z,60368.69
2023-02-07T06:28:48.281Z,60376.13
2023-02-07T06:31:16.925Z,60371.22
2023-02-07T06:33:45.601Z,60377.59
2023-02-07T06:36:14.072Z,60384.38
2023-02-07T06:38:42.560Z,60368.03
2023-02-07T06:41:11.327Z,60371.59
2023-02-07T06:43:41.700Z,60367.38
2023-02-07T06:46:10.144Z,60357.53
2023-02-07T06:48:38.733Z,60362.72
2023-02-07T06:51:07.711Z,60365.91
2023-02-07T06:53:36.512Z,60356.88
2023-02-07T06:56:05.462Z,60360.19
2023-02-07T06:58:34.253Z,60356.22
2023-02-07T07:01:05.727Z,60348.00
2023-02-07T07:03:34.615Z,60357.00
2023-02-07T07:06:03.037Z,60348.00
2023-02-07T07:08:31.609Z,60355.41
2023-02-07T07:11:00.092Z,60342.16
2023-02-07T07:13:28.612Z,60344.94
2023-02-07T07:15:57.115Z,60347.06
2023-02-07T07:18:27.013Z,60370.03
2023-02-07T07:20:55.557Z,60371.22
2023-02-07T07:23:24.529Z,60376.66
2023-02-07T07:25:53.034Z,60372.81
2023-02-07T07:28:21.810Z,60381.19
2023-02-07T07:30:50.319Z,60372.94
2023-02-07T07:33:18.832Z,60378.78
2023-02-07T07:35:48.604Z,60375.06
2023-02-07T07:38:17.094Z,60369.75
2023-02-07T07:40:45.559Z,60363.38
2023-02-07T07:43:13.963Z,60376.13
2023-02-07T07:45:51.212Z,60361.25
2023-02-07T07:48:19.855Z,60356.19
2023-02-07T07:50:50.297Z,60368.94
2023-02-07T07:53:20.008Z,60371.34
2023-02-07T07:55:51.539Z,60370.81
2023-02-07T07:58:21.100Z,60369.63
2023-02-07T08:00:49.723Z,60380.91
2023-02-07T08:03:20.535Z,60400.41
2023-02-07T08:05:51.094Z,60382.50
2023-02-07T08:08:20.558Z,60377.59
2023-02-07T08:10:49.503Z,60401.06
2023-02-07T08:13:20.174Z,60401.59
2023-02-07T08:15:49.269Z,60484.47
2023-02-07T08:18:18.731Z,60509.88
2023-02-07T08:20:47.241Z,60532.75
2023-02-07T08:23:17.091Z,60517.84
2023-02-07T08:25:46.710Z,60531.13
2023-02-07T08:28:15.546Z,60537.41
2023-02-07T08:30:45.788Z,60533.78
2023-02-07T08:33:14.458Z,60540.84
2023-02-07T08:35:43.363Z,60556.66
2023-02-07T08:38:11.914Z,60574.34
2023-02-07T08:40:41.770Z,60566.09
2023-02-07T08:43:12.483Z,60589.25
2023-02-07T08:45:41.342Z,60573.16
2023-02-07T08:48:10.537Z,60526.22
2023-02-07T08:50:39.304Z,60485.03
2023-02-07T08:53:08.343Z,60503.63
2023-02-07T08:55:36.787Z,60494.47
2023-02-07T08:58:06.506Z,60498.56
2023-02-07T09:00:35.481Z,60491.28
2023-02-07T09:03:04.621Z,60503.88
2023-02-07T09:05:33.890Z,60485.03
2023-02-07T09:08:02.701Z,60495.94
2023-02-07T09:10:31.228Z,60516.78
2023-02-07T09:12:59.776Z,60517.44
2023-02-07T09:15:29.534Z,60499.66
2023-02-07T09:17:58.177Z,60483.16
2023-02-07T09:20:26.627Z,60480.63
2023-02-07T09:23:13.540Z,60495.13
2023-02-07T09:25:42.839Z,60508.94
2023-02-07T09:28:11.570Z,60502.44
2023-02-07T09:30:44.480Z,60524.63
2023-02-07T09:33:15.206Z,60532.06
2023-02-07T09:35:46.476Z,60534.88
2023-02-07T09:38:18.006Z,60508.94
2023-02-07T09:40:49.028Z,60510.00
2023-02-07T09:43:36.406Z,60540.06
2023-02-07T09:46:14.936Z,60584.06
2023-02-07T09:48:49.672Z,60649.38
2023-02-07T09:51:23.646Z,60707.03
2023-02-07T09:53:57.279Z,60774.84
2023-02-07T09:56:29.240Z,60774.56
2023-02-07T09:59:06.287Z,60853.78
2023-02-07T10:01:42.792Z,60870.44
2023-02-07T10:04:30.321Z,60881.22
2023-02-07T10:07:00.954Z,60892.44
2023-02-07T10:09:33.115Z,60919.41
2023-02-07T10:12:11.697Z,60859.75
2023-02-07T10:15:01.634Z,60852.28
2023-02-07T10:17:54.560Z,60866.28
2023-02-07T10:20:36.837Z,60878.44
2023-02-07T10:23:28.100Z,60889.66
2023-02-07T10:26:11.467Z,60919.13
2023-02-07T10:29:04.118Z,60944.63
2023-02-07T10:31:35.287Z,60950.09
2023-02-07T10:34:15.324Z,60948.91
2023-02-07T10:36:49.405Z,60943.44
2023-02-07T10:39:33.642Z,60952.22
2023-02-07T10:42:02.336Z,60974.00
2023-02-07T10:44:31.162Z,61028.09
2023-02-07T10:47:02.685Z,60971.75
2023-02-07T10:49:35.502Z,60929.25
2023-02-07T10:52:27.522Z,60970.56
2023-02-07T10:54:58.905Z,60966.00
2023-02-07T10:57:29.576Z,60998.81
2023-02-07T11:00:06.888Z,61009.38
2023-02-07T11:02:50.082Z,60982.97
2023-02-07T11:05:37.472Z,60966.94
2023-02-07T11:08:16.739Z,60974.66
2023-02-07T11:10:47.414Z,60965.88
2023-02-07T11:13:19.760Z,61003.25
2023-02-07T11:15:56.846Z,61008.31
2023-02-07T11:18:38.760Z,61035.84
2023-02-07T11:21:24.059Z,60998.69
2023-02-07T11:23:55.180Z,61025.69
2023-02-07T11:26:25.093Z,60975.19
2023-02-07T11:28:55.823Z,61064.97
2023-02-07T11:31:31.266Z,61057.78
2023-02-07T11:34:11.188Z,61043.19
2023-02-07T11:36:41.060Z,61043.03
2023-02-07T11:39:18.140Z,61069.66
2023-02-07T11:41:56.994Z,61032.09
2023-02-07T11:44:29.625Z,60990.03
2023-02-07T11:47:04.817Z,60987.22
2023-02-07T11:49:44.071Z,60980.53
2023-02-07T11:52:15.180Z,61047.63
2023-02-07T11:54:50.191Z,61074.88
2023-02-07T11:57:21.231Z,61035.97
2023-02-07T12:00:01.487Z,61045.06
2023-02-07T12:02:32.353Z,61027.44
2023-02-07T12:05:20.443Z,60984.81
2023-02-07T12:07:54.270Z,60992.16
2023-02-07T12:10:25.314Z,61030.38
2023-02-07T12:13:00.204Z,61035.84
2023-02-07T12:15:34.856Z,61018.44
2023-02-07T12:18:09.090Z,61008.31
2023-02-07T12:20:42.797Z,61019.53
2023-02-07T12:23:41.877Z,61075.53
2023-02-07T12:26:21.364Z,61010.72
2023-02-07T12:29:13.188Z,61006.69
2023-02-07T12:31:52.372Z,61010.44
2023-02-07T12:34:30.908Z,60988.28
2023-02-07T12:37:06.576Z,61006.69
2023-02-07T12:39:44.850Z,61048.41
2023-02-07T12:42:33.216Z,61096.28
2023-02-07T12:45:04.309Z,61085.41
2023-02-07T12:47:49.004Z,61078.75
2023-02-07T12:50:33.376Z,61069.53
2023-02-07T12:53:23.850Z,61048.81
2023-02-07T12:56:07.280Z,61064.44
2023-02-07T12:58:52.939Z,61071.25
2023-02-07T13:01:32.359Z,61086.22
2023-02-07T13:04:52.145Z,61019.53
2023-02-07T13:07:43.611Z,61057.25
2023-02-07T13:10:24.302Z,61129.44
2023-02-07T13:13:01.796Z,61095.22
2023-02-07T13:15:39.465Z,61014.72
2023-02-07T13:18:17.686Z,61007.53
2023-02-07T13:21:04.949Z,61034.91
2023-02-07T13:23:38.640Z,61073.81
2023-02-07T13:26:11.662Z,61001.66
2023-02-07T13:28:46.728Z,60994.28
2023-02-07T13:31:20.762Z,60991.09
2023-02-07T13:33:51.436Z,60989.50
2023-02-07T13:36:31.183Z,60944.09
2023-02-07T13:39:22.904Z,60961.81
2023-02-07T13:42:04.247Z,60975.72
2023-02-07T13:44:44.291Z,60971.47
2023-02-07T13:47:40.849Z,61000.28
2023-02-07T13:50:26.793Z,61001.38
2023-02-07T13:53:05.476Z,60979.97
2023-02-07T13:55:38.058Z,60955.31
2023-02-07T13:59:08.664Z,60956.78
2023-02-07T14:01:40.418Z,60942.63
2023-02-07T14:04:11.894Z,60943.69
2023-02-07T14:06:42.341Z,60966.53
2023-02-07T14:09:20.178Z,60955.19
2023-02-07T14:11:51.890Z,60966.28
2023-02-07T14:14:28.851Z,60942.50
2023-02-07T14:17:01.144Z,60930.50
2023-02-07T14:20:02.405Z,60936.09
2023-02-07T14:22:33.272Z,60944.63
2023-02-07T14:25:24.055Z,60923.91
2023-02-07T14:28:20.746Z,60915.94
2023-02-07T14:31:14.669Z,60925.81
2023-02-07T14:34:14.133Z,60936.75
2023-02-07T14:36:43.774Z,60925.53
2023-02-07T14:39:33.530Z,60931.41
2023-02-07T14:42:17.160Z,60951.97
2023-02-07T14:44:48.120Z,60918.03
2023-02-07T14:47:25.476Z,60927.13
2023-02-07T14:49:58.357Z,60926.88
2023-02-07T14:52:31.692Z,60925.53
2023-02-07T14:55:05.041Z,60912.47
2023-02-07T14:57:41.401Z,60917.94
2023-02-07T15:00:28.568Z,60919.53
2023-02-07T15:02:58.855Z,60927.41
2023-02-07T15:05:32.853Z,60925.94
2023-02-07T15:08:17.771Z,60932.75
2023-02-07T15:10:55.278Z,60913.13
2023-02-07T15:13:31.857Z,60915.66
2023-02-07T15:16:05.093Z,60907.78
2023-02-07T15:18:39.135Z,60906.31
2023-02-07T15:21:17.125Z,60904.06
2023-02-07T15:23:50.622Z,60915.16
2023-02-07T15:26:20.833Z,60919.28
2023-02-07T15:28:58.464Z,60909.53
2023-02-07T15:31:27.118Z,60913.78
2023-02-07T15:33:58.669Z,60907.78
2023-02-07T15:36:38.508Z,60902.88
2023-02-07T15:39:16.186Z,60902.97
2023-02-07T15:41:46.828Z,60894.56
2023-02-07T15:44:24.106Z,60881.50
2023-02-07T15:46:54.388Z,60886.56
2023-02-07T15:49:29.691Z,60880.03
2023-02-07T15:52:06.780Z,60866.81
2023-02-07T15:54:40.457Z,60875.50
2023-02-07T15:57:15.349Z,60870.97
2023-02-07T15:59:44.424Z,60876.19
2023-02-07T16:02:26.064Z,60870.03
2023-02-07T16:04:54.603Z,60873.09
2023-02-07T16:07:25.521Z,60858.47
2023-02-07T16:09:54.481Z,60859.63
2023-02-07T16:12:43.838Z,60840.16
2023-02-07T16:15:32.213Z,60836.41
2023-02-07T16:18:02.156Z,60834.81
2023-02-07T16:20:35.694Z,60836.28
2023-02-07T16:23:09.742Z,60829.91
2023-02-07T16:25:38.892Z,60827.75
2023-02-07T16:28:14.074Z,60819.75
2023-02-07T16:30:42.840Z,60814.41
2023-02-07T16:33:14.983Z,60811.88
2023-02-07T16:35:43.565Z,60818.03
2023-02-07T16:38:13.405Z,60814.41
2023-02-07T16:40:42.023Z,60808.97
2023-02-07T16:43:10.484Z,60807.50
2023-02-07T16:45:40.232Z,60800.56
2023-02-07T16:48:16.029Z,60804.28
2023-02-07T16:50:44.751Z,60811.22
2023-02-07T16:53:14.562Z,60806.19
2023-02-07T16:55:43.085Z,60806.72
2023-02-07T16:58:22.630Z,60804.69
2023-02-07T17:00:51.189Z,60799.63
2023-02-07T17:03:20.109Z,60793.63
2023-02-07T17:05:48.934Z,60797.91
2023-02-07T17:08:27.078Z,60789.50
2023-02-07T17:11:10.984Z,60799.38
2023-02-07T17:14:10.974Z,60792.56
2023-02-07T17:17:01.581Z,60788.19
2023-02-07T17:20:08.569Z,60774.97
2023-02-07T17:23:30.707Z,60775.50
2023-02-07T17:26:17.485Z,60778.03
2023-02-07T17:28:45.854Z,60763.91
2023-02-07T17:31:14.679Z,60773.38
2023-02-07T17:33:43.636Z,60773.91
2023-02-07T17:36:13.991Z,60754.19
2023-02-07T17:38:43.238Z,60758.03
2023-02-07T17:41:14.639Z,60744.06
2023-02-07T17:47:11.996Z,60738.75
2023-02-07T17:49:40.579Z,60749.81
2023-02-07T17:52:13.452Z,60756.19
2023-02-07T17:54:42.923Z,60759.53
2023-02-07T17:57:18.622Z,60761.09
2023-02-07T17:59:47.261Z,60752.06
2023-02-07T18:02:15.892Z,60753.66
2023-02-07T18:05:26.652Z,60752.47
2023-02-07T18:07:55.614Z,60746.59
2023-02-07T18:10:26.909Z,60729.81
2023-02-07T18:12:57.378Z,60722.75
2023-02-07T18:15:41.648Z,60691.97
2023-02-07T18:18:17.400Z,60703.19
2023-02-07T18:20:48.728Z,60689.19
2023-02-07T18:23:23.518Z,60707.69
2023-02-07T18:25:53.390Z,60721.81
2023-02-07T18:28:23.479Z,60709.56
2023-02-07T18:30:52.236Z,60720.50
2023-02-07T18:33:20.993Z,60721.28
2023-02-07T18:35:52.629Z,60713.28
2023-02-07T18:38:22.240Z,60716.78
2023-02-07T18:40:50.644Z,60714.75
2023-02-07T18:43:19.219Z,60707.81
2023-02-07T18:45:49.340Z,60702.91
2023-02-07T18:48:17.962Z,60705.16
2023-02-07T18:50:46.601Z,60700.91
2023-02-07T18:53:22.767Z,60693.56
2023-02-07T18:55:52.494Z,60697.31
2023-02-07T18:58:21.067Z,60697.06
2023-02-07T19:07:13.353Z,60651.38
2023-02-07T19:09:41.889Z,60668.44
2023-02-07T19:12:19.637Z,60659.78
2023-02-07T19:14:48.409Z,60670.97
2023-02-07T19:17:20.094Z,60660.97
2023-02-07T19:33:50.180Z,60648.56
2023-02-07T19:40:02.284Z,60633.16
2023-02-07T19:42:39.991Z,60633.41
2023-02-07T19:45:09.420Z,60628.50
2023-02-07T19:47:37.940Z,60627.44
2023-02-07T19:50:08.809Z,60615.31
2023-02-07T19:52:37.511Z,60612.53
2023-02-07T19:56:21.502Z,60620.38
2023-02-07T19:59:14.542Z,60599.75
2023-02-07T20:01:47.087Z,60604.53
2023-02-07T20:04:20.198Z,60601.47
2023-02-07T20:06:50.351Z,60611.88
2023-02-07T20:09:19.803Z,60612.00
2023-02-07T20:12:09.779Z,60596.44
2023-02-07T20:15:20.924Z,60606.53
2023-02-07T20:17:49.503Z,60608.28
2023-02-07T20:20:18.412Z,60596.69
2023-02-07T20:22:48.466Z,60596.56
2023-02-07T20:25:17.326Z,60596.56
2023-02-07T20:27:45.997Z,60584.22
2023-02-07T20:30:56.634Z,60583.91
2023-02-07T20:54:36.675Z,60560.81
2023-02-07T20:57:17.726Z,60563.03
2023-02-07T20:59:59.169Z,60540.16
2023-02-07T21:02:46.208Z,60561.03
2023-02-07T21:05:21.609Z,60549.63
2023-02-07T21:08:05.951Z,60541.38
2023-02-07T21:10:34.905Z,60556.13
2023-02-07T21:13:06.425Z,60552.94
2023-02-07T21:16:03.525Z,60537.41
2023-02-07T21:21:39.716Z,60553.59
2023-02-07T21:24:10.552Z,60552.00
2023-02-07T21:26:39.144Z,60548.69
2023-02-07T21:29:36.377Z,60550.94
2023-02-07T21:32:08.701Z,60534.44
2023-02-07T21:47:59.294Z,60539.63
2023-02-07T21:50:27.713Z,60531.25
2023-02-07T21:52:56.286Z,60533.66
2023-02-07T21:55:25.176Z,60525.94
2023-02-07T21:57:53.974Z,60530.22
2023-02-07T22:00:22.884Z,60529.16
2023-02-07T22:02:53.149Z,60533.78
2023-02-07T22:05:21.704Z,60529.16
2023-02-07T22:07:50.183Z,60530.59
2023-02-07T22:10:19.066Z,60519.56
2023-02-07T22:12:48.131Z,60517.44
2023-02-07T22:15:17.132Z,60527.03
2023-02-07T22:17:45.673Z,60524.50
2023-02-07T22:20:15.855Z,60529.41
2023-02-07T22:22:44.558Z,60525.69
2023-02-07T22:25:13.618Z,60523.16
2023-02-07T22:27:42.618Z,60517.44
2023-02-07T22:30:13.350Z,60508.94
2023-02-07T22:32:42.791Z,60506.69
2023-02-07T22:35:11.466Z,60499.66
2023-02-07T22:37:41.780Z,60509.22
2023-02-07T22:40:11.926Z,60505.75
2023-02-07T22:42:47.972Z,60497.50
2023-02-07T22:45:16.633Z,60496.97
2023-02-07T22:47:45.292Z,60493.50
2023-02-07T22:54:26.142Z,60494.84
2023-02-07T22:57:29.354Z,60484.47
2023-02-07T23:00:00.908Z,60479.56
2023-02-07T23:02:29.933Z,60489.00
2023-02-07T23:04:58.651Z,60481.03
2023-02-07T23:07:51.582Z,60489.41
2023-02-07T23:10:29.632Z,60481.16
2023-02-07T23:13:03.173Z,60486.09
2023-02-07T23:24:13.302Z,60475.72
2023-02-07T23:26:43.272Z,60487.56
2023-02-07T23:29:12.108Z,60483.41
2023-02-07T23:31:40.597Z,60479.19
2023-02-07T23:34:10.439Z,60485.28
2023-02-07T23:36:39.771Z,60479.03
2023-02-07T23:39:08.535Z,60478.38
2023-02-07T23:41:37.182Z,60466.81
2023-02-07T23:44:07.393Z,60461.91
2023-02-07T23:46:36.085Z,60458.72
2023-02-07T23:49:05.235Z,60456.59
2023-02-07T23:51:34.308Z,60453.00
2023-02-07T23:54:02.849Z,60457.66
2023-02-07T23:56:31.939Z,60461.91
2023-02-07T23:59:00.851Z,60459.38
